Pagrindinis puslapis
METAR-TAF:

METAR-TAF

Oro uostai :

Katima Mulilas, Namibija

platuma: 17-38-04S, ilguma: 024-10-36E, Aukštis: 985 m

Dabartinis oras

Ataskaita buvo paskelbta 54 minutes, ne 02:00 UTC
Vėjas 2 kt iš Rytų/Pietryčių
Temperatūra 22°C
Drėgmė 94%
Slėgis 1014 hPa

METAR: FYKM 210200Z AUTO 11002KT //// // ////// 22/21 Q1014

Laikas: 04:54 (02:54 UTC)

Prognozė

Ataskaita buvo paskelbta 12 valandos ir 54 minutes, ne 14:00 UTC
Prognozė galioja nuo 20 metu 15 UTC su 21 metu 00 UTC
Vėjas 3 kt iš Šiaurės/Šiaurės Rytų
Matomumas 10 km arba daugiau
Išsisklaidę debesys ne aukštis 3000 ft
Tapsmas
nuo 20 metu 16 UTC su 20 metu 18 UTC
Išsisklaidę debesys ne aukštis 4000 ft, aukštai iškilę kamuoliniai debesys.
Tikimybė 30% :
Laikinai
nuo 20 metu 18 UTC su 20 metu 21 UTC
Mažai debesys ne aukštis 3500 ft, Liūtiniai kamuoliniai debesys.
Išsisklaidę debesys ne aukštis 4000 ft, aukštai iškilę kamuoliniai debesys.
perkūnija, lietus

TAF: FYKM 201400Z 2015/2100 03003KT 9999 SCT030 BECMG 2016/2018 SCT040TCU PROB30 TEMPO 2018/2021 -TSRA FEW035CB SCT040TCU

Orai ataskaitas ir orų prognozės (METAR, TAF).

turimą stotys yra geltonos ir raudonos taškus žemėlapyje.

Perkelti pele per norėdami pamatyti stoties vardą.

Tada spustelėkite, norėdami matyti oro stebėjimo ir prognozės.

Norėdami pakeisti žemėlapį: spustelėkite ant žalios mygtukų su juodo kryžiaus žemyn,; žalią mygtuką su brūkšneliu, jei norite nutolinti; arba žalių rodyklių gretimoms žemėlapius.


METAR-TAF: